Time;durP1;ratioP1;P1;durP2;ratioP2;P2;SDS_P1;SDS_P2;PMS_P1;PMS_P2;Temp;Humidity;BMP_temperature;BMP_pressure;BME280_temperature;BME280_humidity;BME280_pressure;Samples;Min_cycle;Max_cycle;Signal;HPM_P1;HPM_P2
2021/08/24 00:00:17;;;;;;;;;;;;;;;;;;4999605;28;19930;-84
2021/08/24 00:02:45;;;;;;;;;;;;;;;;;;4999201;28;20516;-86
2021/08/24 00:05:14;;;;;;;;;;;;;;;;;;4996738;28;19925;-86
2021/08/24 00:07:42;;;;;;;;;;;;;;;;;;5016296;28;19925;-88
2021/08/24 00:10:11;;;;;;;;;;;;;;;;;;4996228;28;19932;-87
2021/08/24 00:12:39;;;;;;;;;;;;;;;;;;4998908;28;19932;-88
2021/08/24 00:15:08;;;;;;;;;;;;;;;;;;4996054;28;19936;-88
2021/08/24 00:17:37;;;;;;;;;;;;;;;;;;5008784;28;19929;-90
2021/08/24 00:20:06;;;;;;;;;;;;;;;;;;4998805;28;19925;-88
2021/08/24 00:22:35;;;;;;;;;;;;;;;;;;4991949;28;19932;-89
2021/08/24 00:25:04;;;;;;;;;;;;;;;;;;4995974;28;19925;-88
2021/08/24 00:27:32;;;;;;;;;;;;;;;;;;4990637;28;19926;-86
2021/08/24 00:30:02;;;;;;;;;;;;;;;;;;4994955;28;20393;-87
2021/08/24 00:32:30;;;;;;;;;;;;;;;;;;5011063;28;19932;-88
2021/08/24 00:35:00;;;;;;;;;;;;;;;;;;4991617;28;19932;-88
2021/08/24 00:37:28;;;;;;;;;;;;;;;;;;4991697;28;20188;-87
2021/08/24 00:39:56;;;;;;;;;;;;;;;;;;4998188;28;19933;-86
2021/08/24 00:42:24;;;;;;;;;;;;;;;;;;4997427;28;19925;-89
2021/08/24 00:44:52;;;;;;;;;;;;;;;;;;4999018;28;19933;-89
2021/08/24 00:47:21;;;;;;;;;;;;;;;;;;5015895;28;19932;-89
2021/08/24 00:49:49;;;;;;;;;;;;;;;;;;4999130;28;19932;-89
2021/08/24 00:52:21;;;;;;;;;;;;;;;;;;4990996;28;19925;-88
2021/08/24 00:54:54;;;;;;;;;;;;;;;;;;4998081;28;19929;-86
2021/08/24 00:57:23;;;;;;;;;;;;;;;;;;5015364;28;19925;-87
2021/08/24 00:59:51;;;;;;;;;;;;;;;;;;4998522;28;19932;-90
2021/08/24 01:02:21;;;;;;;;;;;;;;;;;;4987856;28;19948;-90
2021/08/24 01:04:50;;;;;;;;;;;;;;;;;;4998489;28;19925;-89
2021/08/24 01:07:20;;;;;;;;;;;;;;;;;;5004319;28;19940;-88
2021/08/24 01:09:51;;;;;;;;;;;;;;;;;;4989981;28;19988;-90
2021/08/24 01:12:23;;;;;;;;;;;;;;;;;;4992484;28;20312;-88
2021/08/24 01:14:52;;;;;;;;;;;;;;;;;;5013580;28;19933;-86
2021/08/24 01:17:21;;;;;;;;;;;;;;;;;;4998083;28;19931;-88
2021/08/24 01:20:00;;;;;;;;;;;;;;;;;;4998245;28;20499;-88
2021/08/24 01:22:43;;;;;;;;;;;;;;;;;;4998501;28;20312;-85
2021/08/24 01:25:13;;;;;;;;;;;;;;;;;;5001202;28;19925;-87
2021/08/24 01:27:44;;;;;;;;;;;;;;;;;;5009356;28;19925;-90
2021/08/24 01:30:15;;;;;;;;;;;;;;;;;;5009161;28;19925;-87
2021/08/24 01:32:56;;;;;;;;;;;;;;;;;;5011373;28;19925;-90
2021/08/24 01:35:30;;;;;;;;;;;;;;;;;;4997865;28;19932;-87
2021/08/24 01:38:04;;;;;;;;;;;;;;;;;;4990306;28;20393;-87
2021/08/24 01:40:35;;;;;;;;;;;;;;;;;;4997576;28;19925;-87
2021/08/24 01:43:04;;;;;;;;;;;;;;;;;;5011533;28;19933;-86
2021/08/24 01:45:34;;;;;;;;;;;;;;;;;;4993218;28;19932;-87
2021/08/24 01:48:02;;;;;;;;;;;;;;;;;;4997677;28;19932;-88
2021/08/24 01:50:32;;;;;;;;;;;;;;;;;;5012291;28;19932;-90
2021/08/24 01:53:03;;;;;;;;;;;;;;;;;;5013265;28;19925;-88
2021/08/24 01:55:32;;;;;;;;;;;;;;;;;;4993205;28;19926;-88
2021/08/24 01:58:01;;;;;;;;;;;;;;;;;;4996949;28;19925;-89
2021/08/24 02:00:29;;;;;;;;;;;;;;;;;;4997200;28;19925;-88
2021/08/24 02:02:59;;;;;;;;;;;;;;;;;;4994360;28;19952;-90
2021/08/24 02:05:28;;;;;;;;;;;;;;;;;;4996802;28;20042;-90
2021/08/24 02:07:57;;;;;;;;;;;;;;;;;;5013696;28;19948;-88
2021/08/24 02:10:28;;;;;;;;;;;;;;;;;;4991742;28;19930;-87
2021/08/24 02:12:56;;;;;;;;;;;;;;;;;;4992958;28;19932;-88
2021/08/24 02:15:27;;;;;;;;;;;;;;;;;;4991606;28;19932;-88
2021/08/24 02:17:55;;;;;;;;;;;;;;;;;;4997414;28;20309;-88
2021/08/24 02:20:24;;;;;;;;;;;;;;;;;;4996905;28;19930;-88
2021/08/24 02:22:54;;;;;;;;;;;;;;;;;;4997971;28;19947;-87
2021/08/24 02:25:23;;;;;;;;;;;;;;;;;;4986016;28;19925;-88
2021/08/24 02:27:54;;;;;;;;;;;;;;;;;;4997468;28;20301;-88
2021/08/24 02:30:23;;;;;;;;;;;;;;;;;;5006741;28;19925;-87
2021/08/24 02:32:51;;;;;;;;;;;;;;;;;;4991823;28;20313;-87
2021/08/24 02:35:22;;;;;;;;;;;;;;;;;;5009717;28;19933;-88
2021/08/24 02:37:51;;;;;;;;;;;;;;;;;;5016186;28;19932;-90
2021/08/24 02:40:21;;;;;;;;;;;;;;;;;;4999789;28;19929;-89
2021/08/24 02:42:51;;;;;;;;;;;;;;;;;;5009220;28;19948;-90
2021/08/24 02:45:23;;;;;;;;;;;;;;;;;;4994244;28;20233;-90
2021/08/24 02:47:51;;;;;;;;;;;;;;;;;;5009592;28;20420;-91
2021/08/24 02:50:19;;;;;;;;;;;;;;;;;;5018781;28;19910;-92
2021/08/24 02:52:48;;;;;;;;;;;;;;;;;;5037875;28;19916;-91
2021/08/24 02:55:16;;;;;;;;;;;;;;;;;;5036625;28;19925;-92
2021/08/24 02:57:44;;;;;;;;;;;;;;;;;;5023078;28;19909;-91
2021/08/24 03:00:13;;;;;;;;;;;;;;;;;;5026068;28;20201;-92
2021/08/24 03:02:42;;;;;;;;;;;;;;;;;;5001855;28;19925;-91
2021/08/24 03:05:11;;;;;;;;;;;;;;;;;;5003630;28;19933;-90
2021/08/24 03:07:39;;;;;;;;;;;;;;;;;;5005725;28;19931;-90
2021/08/24 03:10:09;;;;;;;;;;;;;;;;;;5001309;28;19956;-90
2021/08/24 03:12:39;;;;;;;;;;;;;;;;;;5002496;28;19925;-90
2021/08/24 03:15:13;;;;;;;;;;;;;;;;;;5014537;28;19929;-90
2021/08/24 03:17:43;;;;;;;;;;;;;;;;;;5038886;28;19913;-93
2021/08/24 03:20:12;;;;;;;;;;;;;;;;;;5039773;28;19923;-92
2021/08/24 03:22:40;;;;;;;;;;;;;;;;;;5019569;28;19910;-91
2021/08/24 03:25:09;;;;;;;;;;;;;;;;;;5010381;28;19929;-90
2021/08/24 03:27:37;;;;;;;;;;;;;;;;;;4998155;28;20408;-88
2021/08/24 03:30:08;;;;;;;;;;;;;;;;;;5014356;28;20413;-89
2021/08/24 03:32:36;;;;;;;;;;;;;;;;;;5017089;28;19926;-90
2021/08/24 03:35:06;;;;;;;;;;;;;;;;;;5000705;28;19933;-88
2021/08/24 03:37:35;;;;;;;;;;;;;;;;;;4997459;28;20389;-90
2021/08/24 03:40:03;;;;;;;;;;;;;;;;;;5007923;28;19925;-89
2021/08/24 03:42:31;;;;;;;;;;;;;;;;;;4996828;28;19925;-89
2021/08/24 03:44:59;;;;;;;;;;;;;;;;;;5000035;28;19932;-90
2021/08/24 03:47:28;;;;;;;;;;;;;;;;;;5017111;28;19936;-89
2021/08/24 03:49:56;;;;;;;;;;;;;;;;;;4990612;28;19932;-87
2021/08/24 03:52:25;;;;;;;;;;;;;;;;;;4994881;28;20402;-88
2021/08/24 03:54:53;;;;;;;;;;;;;;;;;;5014731;28;19948;-89
2021/08/24 03:57:21;;;;;;;;;;;;;;;;;;5001619;28;19925;-92
2021/08/24 03:59:53;;;;;;;;;;;;;;;;;;5001902;28;19932;-92
2021/08/24 04:02:21;;;;;;;;;;;;;;;;;;5017190;28;19926;-92
2021/08/24 04:04:50;;;;;;;;;;;;;;;;;;5000012;28;20309;-92
2021/08/24 04:07:18;;;;;;;;;;;;;;;;;;4997077;28;19926;-92
2021/08/24 04:09:48;;;;;;;;;;;;;;;;;;4991621;28;19929;-93
2021/08/24 04:12:16;;;;;;;;;;;;;;;;;;5024866;28;19915;-93
2021/08/24 04:14:44;;;;;;;;;;;;;;;;;;5025002;28;19909;-93
2021/08/24 04:17:12;;;;;;;;;;;;;;;;;;5025509;28;19915;-93
2021/08/24 04:19:42;;;;;;;;;;;;;;;;;;5025805;28;19925;-93
2021/08/24 04:22:11;;;;;;;;;;;;;;;;;;5025275;28;19909;-93
2021/08/24 04:24:39;;;;;;;;;;;;;;;;;;5058575;28;19946;-92
2021/08/24 04:27:09;;;;;;;;;;;;;;;;;;5025418;28;19920;-94
2021/08/24 04:29:37;;;;;;;;;;;;;;;;;;5011123;28;19925;-91
2021/08/24 04:32:06;;;;;;;;;;;;;;;;;;5000453;28;19948;-93
2021/08/24 04:34:34;;;;;;;;;;;;;;;;;;4999889;28;19932;-91
2021/08/24 04:37:03;;;;;;;;;;;;;;;;;;5000115;28;19932;-92
2021/08/24 04:39:31;;;;;;;;;;;;;;;;;;4983544;28;19925;-92
2021/08/24 04:41:59;;;;;;;;;;;;;;;;;;4986035;28;19925;-93
2021/08/24 04:44:29;;;;;;;;;;;;;;;;;;4999463;28;19932;-92
2021/08/24 04:46:57;;;;;;;;;;;;;;;;;;4999459;28;19925;-92
2021/08/24 04:49:25;;;;;;;;;;;;;;;;;;5015800;28;19925;-91
2021/08/24 04:51:54;;;;;;;;;;;;;;;;;;4997507;28;19925;-92
2021/08/24 04:54:22;;;;;;;;;;;;;;;;;;5020184;28;19925;-92
2021/08/24 04:56:50;;;;;;;;;;;;;;;;;;5002955;28;19936;-92
2021/08/24 04:59:18;;;;;;;;;;;;;;;;;;5003632;28;20316;-92
2021/08/24 05:01:48;;;;;;;;;;;;;;;;;;5019541;28;19929;-92
2021/08/24 05:04:16;;;;;;;;;;;;;;;;;;5017954;28;19934;-92
2021/08/24 05:06:44;;;;;;;;;;;;;;;;;;5002558;28;19925;-92
2021/08/24 05:09:13;;;;;;;;;;;;;;;;;;5003654;28;19925;-94
2021/08/24 05:11:41;;;;;;;;;;;;;;;;;;5003866;28;19936;-93
2021/08/24 05:14:09;;;;;;;;;;;;;;;;;;4999439;28;19932;-92
2021/08/24 05:16:38;;;;;;;;;;;;;;;;;;5002663;28;19932;-92
2021/08/24 05:19:07;;;;;;;;;;;;;;;;;;5015153;28;20407;-92
2021/08/24 05:21:36;;;;;;;;;;;;;;;;;;5010881;28;19925;-90
2021/08/24 05:24:04;;;;;;;;;;;;;;;;;;4996912;28;19932;-91
2021/08/24 05:26:34;;;;;;;;;;;;;;;;;;4990094;28;19929;-92
2021/08/24 05:29:02;;;;;;;;;;;;;;;;;;4999003;28;20293;-93
2021/08/24 05:31:30;;;;;;;;;;;;;;;;;;4993989;28;19952;-93
2021/08/24 05:33:58;;;;;;;;;;;;;;;;;;4992679;28;19941;-91
2021/08/24 05:36:28;;;;;;;;;;;;;;;;;;4999093;28;19929;-94
2021/08/24 05:38:56;;;;;;;;;;;;;;;;;;4999548;28;19925;-92
2021/08/24 05:41:25;;;;;;;;;;;;;;;;;;5002796;28;19932;-92
2021/08/24 05:44:24;;;;;;;;;;;;;;;;;;5045314;28;19932;-91
2021/08/24 05:46:53;;;;;;;;;;;;;;;;;;5020986;28;19929;-93
2021/08/24 06:07:21;;;;;;;;;;;;;;;;;;5051893;28;19917;-87
2021/08/24 06:09:49;;;;;;;;;;;;;;;;;;5002632;28;19929;-90
2021/08/24 06:12:19;;;;;;;;;;;;;;;;;;4994730;28;19926;-87
2021/08/24 06:14:47;;;;;;;;;;;;;;;;;;4986554;28;19925;-87
2021/08/24 06:17:16;;;;;;;;;;;;;;;;;;4998368;28;19925;-88
2021/08/24 06:19:44;;;;;;;;;;;;;;;;;;5014761;28;19925;-89
2021/08/24 06:22:12;;;;;;;;;;;;;;;;;;4986017;28;19925;-85
2021/08/24 06:24:42;;;;;;;;;;;;;;;;;;4997958;28;19933;-87
2021/08/24 06:27:10;;;;;;;;;;;;;;;;;;4997728;28;19936;-86
2021/08/24 06:29:38;;;;;;;;;;;;;;;;;;4999462;28;19925;-89
2021/08/24 06:32:07;;;;;;;;;;;;;;;;;;4998867;28;19926;-88
2021/08/24 06:34:35;;;;;;;;;;;;;;;;;;5001763;28;19926;-90
2021/08/24 06:37:04;;;;;;;;;;;;;;;;;;5018904;28;19933;-89
2021/08/24 06:39:32;;;;;;;;;;;;;;;;;;5007134;28;19940;-88
2021/08/24 06:42:04;;;;;;;;;;;;;;;;;;5036090;28;19932;-89
2021/08/24 06:44:32;;;;;;;;;;;;;;;;;;5018506;28;19932;-89
2021/08/24 06:47:00;;;;;;;;;;;;;;;;;;5018592;28;19932;-87
2021/08/24 06:49:28;;;;;;;;;;;;;;;;;;5002649;28;20286;-87
2021/08/24 06:51:57;;;;;;;;;;;;;;;;;;5019506;28;19925;-89
2021/08/24 06:54:29;;;;;;;;;;;;;;;;;;5002048;28;19932;-84
2021/08/24 06:56:57;;;;;;;;;;;;;;;;;;5018233;28;20419;-85
2021/08/24 06:59:27;;;;;;;;;;;;;;;;;;5002019;28;19933;-86
2021/08/24 07:01:55;;;;;;;;;;;;;;;;;;5018056;28;19929;-87
2021/08/24 07:04:23;;;;;;;;;;;;;;;;;;5001420;28;20324;-87
2021/08/24 07:06:52;;;;;;;;;;;;;;;;;;5018096;28;20389;-85
2021/08/24 07:09:20;;;;;;;;;;;;;;;;;;5017201;28;20053;-87
2021/08/24 07:11:48;;;;;;;;;;;;;;;;;;5000914;28;19929;-89
2021/08/24 07:14:16;;;;;;;;;;;;;;;;;;5017876;28;20397;-85
2021/08/24 07:16:46;;;;;;;;;;;;;;;;;;5017949;28;19925;-89
2021/08/24 07:19:14;;;;;;;;;;;;;;;;;;5001683;28;19929;-89
2021/08/24 07:21:42;;;;;;;;;;;;;;;;;;5001100;28;19925;-89
2021/08/24 07:24:10;;;;;;;;;;;;;;;;;;5017091;28;20300;-88
2021/08/24 07:26:38;;;;;;;;;;;;;;;;;;5001034;28;19932;-88
2021/08/24 07:29:06;;;;;;;;;;;;;;;;;;5017770;28;19925;-88
2021/08/24 07:31:37;;;;;;;;;;;;;;;;;;5001561;28;20423;-87
2021/08/24 07:34:08;;;;;;;;;;;;;;;;;;5000814;28;20000;-88
2021/08/24 07:36:37;;;;;;;;;;;;;;;;;;5001124;28;19932;-87
2021/08/24 07:39:05;;;;;;;;;;;;;;;;;;5001113;28;19925;-87
2021/08/24 07:41:34;;;;;;;;;;;;;;;;;;5000897;28;19925;-90
2021/08/24 07:44:02;;;;;;;;;;;;;;;;;;4999765;28;19925;-89
2021/08/24 07:46:30;;;;;;;;;;;;;;;;;;5001100;28;19925;-89
2021/08/24 07:48:58;;;;;;;;;;;;;;;;;;5000439;28;19925;-89
2021/08/24 07:51:28;;;;;;;;;;;;;;;;;;5017573;28;19925;-89
2021/08/24 07:53:56;;;;;;;;;;;;;;;;;;5000677;28;20404;-87
2021/08/24 07:56:24;;;;;;;;;;;;;;;;;;5017261;28;20542;-87
2021/08/24 07:58:52;;;;;;;;;;;;;;;;;;5000796;28;20301;-88
2021/08/24 08:01:20;;;;;;;;;;;;;;;;;;5001241;28;19925;-89
2021/08/24 08:03:48;;;;;;;;;;;;;;;;;;5016782;28;19925;-89
2021/08/24 08:06:17;;;;;;;;;;;;;;;;;;5017256;28;19936;-89
2021/08/24 08:08:46;;;;;;;;;;;;;;;;;;5001179;28;20428;-87
2021/08/24 08:11:14;;;;;;;;;;;;;;;;;;5000057;28;19925;-90
2021/08/24 08:13:43;;;;;;;;;;;;;;;;;;5033592;28;19925;-89
2021/08/24 08:16:11;;;;;;;;;;;;;;;;;;5001015;28;20308;-89
2021/08/24 08:18:39;;;;;;;;;;;;;;;;;;5000145;28;19932;-89
2021/08/24 08:21:07;;;;;;;;;;;;;;;;;;5000215;28;20308;-87
2021/08/24 08:23:35;;;;;;;;;;;;;;;;;;4999684;28;19929;-87
2021/08/24 08:26:05;;;;;;;;;;;;;;;;;;4999919;28;19925;-89
2021/08/24 08:28:33;;;;;;;;;;;;;;;;;;5000210;28;19943;-90
2021/08/24 08:31:01;;;;;;;;;;;;;;;;;;4999719;28;19925;-88
2021/08/24 08:33:29;;;;;;;;;;;;;;;;;;4999319;28;19925;-87
2021/08/24 08:35:57;;;;;;;;;;;;;;;;;;4999558;28;20389;-87
2021/08/24 08:38:25;;;;;;;;;;;;;;;;;;5015349;28;19936;-89
2021/08/24 08:40:54;;;;;;;;;;;;;;;;;;4999148;28;19932;-89
2021/08/24 08:43:28;;;;;;;;;;;;;;;;;;4999564;28;19932;-88
2021/08/24 08:45:58;;;;;;;;;;;;;;;;;;4999891;28;20320;-86
2021/08/24 08:48:30;;;;;;;;;;;;;;;;;;4999181;28;19929;-89
2021/08/24 08:50:59;;;;;;;;;;;;;;;;;;4999769;28;19925;-87
2021/08/24 08:53:31;;;;;;;;;;;;;;;;;;4999860;28;19925;-88
2021/08/24 08:56:01;;;;;;;;;;;;;;;;;;4999559;28;19925;-87
2021/08/24 08:58:35;;;;;;;;;;;;;;;;;;4999908;28;19948;-89
2021/08/24 09:01:11;;;;;;;;;;;;;;;;;;5017933;28;19925;-89
2021/08/24 09:03:45;;;;;;;;;;;;;;;;;;5001557;28;19925;-89
2021/08/24 09:06:15;;;;;;;;;;;;;;;;;;5001419;28;20141;-89
2021/08/24 09:08:43;;;;;;;;;;;;;;;;;;5001043;28;19925;-89
2021/08/24 09:11:11;;;;;;;;;;;;;;;;;;5015836;28;19925;-88
2021/08/24 09:13:42;;;;;;;;;;;;;;;;;;4999232;28;19932;-89
2021/08/24 09:16:12;;;;;;;;;;;;;;;;;;4998776;28;19932;-89
2021/08/24 09:18:44;;;;;;;;;;;;;;;;;;4999568;28;19936;-87
2021/08/24 09:21:15;;;;;;;;;;;;;;;;;;5015066;28;19936;-89
2021/08/24 09:23:45;;;;;;;;;;;;;;;;;;5031665;28;20402;-88
2021/08/24 09:26:26;;;;;;;;;;;;;;;;;;5014853;28;19926;-90
2021/08/24 09:28:56;;;;;;;;;;;;;;;;;;5015504;28;19932;-87
2021/08/24 09:31:25;;;;;;;;;;;;;;;;;;4998688;28;19936;-90
2021/08/24 09:33:53;;;;;;;;;;;;;;;;;;5015068;28;19925;-87
2021/08/24 09:36:22;;;;;;;;;;;;;;;;;;4998392;28;19925;-87
2021/08/24 09:38:51;;;;;;;;;;;;;;;;;;4998525;28;19925;-90
2021/08/24 09:41:23;;;;;;;;;;;;;;;;;;4998542;28;19925;-89
2021/08/24 09:43:53;;;;;;;;;;;;;;;;;;4998368;28;19925;-87
2021/08/24 09:46:42;;;;;;;;;;;;;;;;;;4998701;28;19925;-89
2021/08/24 09:49:27;;;;;;;;;;;;;;;;;;5012346;28;19932;-86
2021/08/24 09:51:59;;;;;;;;;;;;;;;;;;4998580;28;19932;-89
2021/08/24 09:54:29;;;;;;;;;;;;;;;;;;4998415;28;19936;-87
2021/08/24 09:56:58;;;;;;;;;;;;;;;;;;4998935;28;20519;-88
2021/08/24 09:59:27;;;;;;;;;;;;;;;;;;4998384;28;19925;-90
2021/08/24 10:01:55;;;;;;;;;;;;;;;;;;5015447;28;19932;-88
2021/08/24 10:04:23;;;;;;;;;;;;;;;;;;4998400;28;20420;-86
2021/08/24 10:07:00;;;;;;;;;;;;;;;;;;4999351;28;19929;-88
2021/08/24 10:09:29;;;;;;;;;;;;;;;;;;5002575;28;19932;-89
2021/08/24 10:12:13;;;;;;;;;;;;;;;;;;5001929;28;19940;-88
2021/08/24 10:14:45;;;;;;;;;;;;;;;;;;5001917;28;20301;-87
2021/08/24 10:17:14;;;;;;;;;;;;;;;;;;5002097;28;19932;-88
2021/08/24 10:19:42;;;;;;;;;;;;;;;;;;5001951;28;20329;-85
2021/08/24 10:22:14;;;;;;;;;;;;;;;;;;5052280;28;19929;-88
2021/08/24 10:24:53;;;;;;;;;;;;;;;;;;5032965;28;19925;-87
2021/08/24 10:27:24;;;;;;;;;;;;;;;;;;5018457;28;20393;-86
2021/08/24 10:29:53;;;;;;;;;;;;;;;;;;5017833;28;19952;-85
2021/08/24 10:32:23;;;;;;;;;;;;;;;;;;5002007;28;19925;-88
2021/08/24 10:34:51;;;;;;;;;;;;;;;;;;4998829;28;19925;-88
2021/08/24 10:37:38;;;;;;;;;;;;;;;;;;5002220;28;19926;-86
2021/08/24 10:40:20;;;;;;;;;;;;;;;;;;5002194;28;20273;-85
2021/08/24 10:42:59;;;;;;;;;;;;;;;;;;5001380;28;19929;-86
2021/08/24 10:45:28;;;;;;;;;;;;;;;;;;4996202;28;19933;-85
2021/08/24 10:47:57;;;;;;;;;;;;;;;;;;4998918;28;20394;-85
2021/08/24 10:50:32;;;;;;;;;;;;;;;;;;5005270;28;19925;-86
2021/08/24 10:53:04;;;;;;;;;;;;;;;;;;4992835;28;19948;-88
2021/08/24 10:55:32;;;;;;;;;;;;;;;;;;5001371;28;20401;-86
2021/08/24 10:58:02;;;;;;;;;;;;;;;;;;5001913;28;19925;-86
2021/08/24 11:00:35;;;;;;;;;;;;;;;;;;4998036;28;19925;-87
2021/08/24 11:03:07;;;;;;;;;;;;;;;;;;5035557;28;19925;-87
2021/08/24 11:05:38;;;;;;;;;;;;;;;;;;4996612;28;19925;-86
2021/08/24 11:08:15;;;;;;;;;;;;;;;;;;5001063;28;19933;-88
2021/08/24 11:10:45;;;;;;;;;;;;;;;;;;4997231;28;19925;-87
2021/08/24 11:13:21;;;;;;;;;;;;;;;;;;5009030;28;20313;-85
2021/08/24 11:15:50;;;;;;;;;;;;;;;;;;5008522;28;19932;-87
2021/08/24 11:18:21;;;;;;;;;;;;;;;;;;4999421;28;19925;-87
2021/08/24 11:20:51;;;;;;;;;;;;;;;;;;4996178;28;20385;-85
2021/08/24 11:23:23;;;;;;;;;;;;;;;;;;4998638;28;19944;-86
2021/08/24 11:25:51;;;;;;;;;;;;;;;;;;5002400;28;20452;-86
2021/08/24 11:28:22;;;;;;;;;;;;;;;;;;5001059;28;19932;-84
2021/08/24 11:30:50;;;;;;;;;;;;;;;;;;5008412;28;19925;-85
2021/08/24 11:33:19;;;;;;;;;;;;;;;;;;4994104;28;19936;-85
2021/08/24 11:35:50;;;;;;;;;;;;;;;;;;5001750;28;20408;-86
2021/08/24 11:38:19;;;;;;;;;;;;;;;;;;5004098;28;19925;-86
2021/08/24 11:40:51;;;;;;;;;;;;;;;;;;5013502;28;19955;-86
2021/08/24 11:43:20;;;;;;;;;;;;;;;;;;4998354;28;20525;-86
2021/08/24 11:45:48;;;;;;;;;;;;;;;;;;4996523;28;19932;-85
2021/08/24 11:48:19;;;;;;;;;;;;;;;;;;5000498;28;20396;-84
2021/08/24 11:50:48;;;;;;;;;;;;;;;;;;5000800;28;20392;-84
2021/08/24 11:53:18;;;;;;;;;;;;;;;;;;4996079;28;19925;-84
2021/08/24 11:55:49;;;;;;;;;;;;;;;;;;5020731;28;19928;-85
2021/08/24 11:58:25;;;;;;;;;;;;;;;;;;4986907;28;20110;-84
2021/08/24 12:01:03;;;;;;;;;;;;;;;;;;5010936;28;19926;-87
2021/08/24 12:03:31;;;;;;;;;;;;;;;;;;4998801;28;19925;-85
2021/08/24 12:06:03;;;;;;;;;;;;;;;;;;4992837;28;19933;-85
2021/08/24 12:08:33;;;;;;;;;;;;;;;;;;5016193;28;20446;-87
2021/08/24 12:11:05;;;;;;;;;;;;;;;;;;5032253;28;20394;-85
2021/08/24 12:13:36;;;;;;;;;;;;;;;;;;4999529;28;19925;-86
2021/08/24 12:16:08;;;;;;;;;;;;;;;;;;5005309;28;19936;-88
2021/08/24 12:18:36;;;;;;;;;;;;;;;;;;4999499;28;19925;-87
2021/08/24 12:21:20;;;;;;;;;;;;;;;;;;4998219;28;19925;-87
2021/08/24 12:23:48;;;;;;;;;;;;;;;;;;4995945;28;19932;-86
2021/08/24 12:26:24;;;;;;;;;;;;;;;;;;4993201;28;19937;-86
2021/08/24 12:28:54;;;;;;;;;;;;;;;;;;4993682;28;19936;-88
2021/08/24 12:31:41;;;;;;;;;;;;;;;;;;4992620;28;19933;-87
2021/08/24 12:34:28;;;;;;;;;;;;;;;;;;5013587;28;20400;-88
2021/08/24 12:36:57;;;;;;;;;;;;;;;;;;4996938;28;19925;-86
2021/08/24 12:39:29;;;;;;;;;;;;;;;;;;4998556;28;19936;-88
2021/08/24 12:42:08;;;;;;;;;;;;;;;;;;5001994;28;19932;-90
2021/08/24 12:44:45;;;;;;;;;;;;;;;;;;5040707;28;19909;-91
2021/08/24 12:47:30;;;;;;;;;;;;;;;;;;5039654;28;19919;-90
2021/08/24 12:49:58;;;;;;;;;;;;;;;;;;5023737;28;19944;-91
2021/08/24 12:52:31;;;;;;;;;;;;;;;;;;5023334;28;19915;-89
2021/08/24 12:55:11;;;;;;;;;;;;;;;;;;5022727;28;19917;-86
2021/08/24 12:57:42;;;;;;;;;;;;;;;;;;4988434;28;19930;-86
2021/08/24 13:00:17;;;;;;;;;;;;;;;;;;5008826;28;19936;-86
2021/08/24 13:02:52;;;;;;;;;;;;;;;;;;5019862;28;19936;-85
2021/08/24 13:05:21;;;;;;;;;;;;;;;;;;5014174;28;19932;-86
2021/08/24 13:08:01;;;;;;;;;;;;;;;;;;5019314;28;19932;-88
2021/08/24 13:10:31;;;;;;;;;;;;;;;;;;5018512;28;20533;-88
2021/08/24 13:13:00;;;;;;;;;;;;;;;;;;5022467;28;19915;-87
2021/08/24 13:15:52;;;;;;;;;;;;;;;;;;5023697;28;19917;-88
2021/08/24 13:18:28;;;;;;;;;;;;;;;;;;5010910;28;20385;-88
2021/08/24 13:21:05;;;;;;;;;;;;;;;;;;5015903;28;19925;-87
2021/08/24 13:23:34;;;;;;;;;;;;;;;;;;4996026;28;19926;-87
2021/08/24 13:26:11;;;;;;;;;;;;;;;;;;4999176;28;19929;-91
2021/08/24 13:28:40;;;;;;;;;;;;;;;;;;5004004;28;19925;-88
2021/08/24 13:31:16;;;;;;;;;;;;;;;;;;4997974;28;19929;-91
2021/08/24 13:33:45;;;;;;;;;;;;;;;;;;5007253;28;19924;-87
2021/08/24 13:36:15;;;;;;;;;;;;;;;;;;4993158;28;19925;-88
2021/08/24 13:38:45;;;;;;;;;;;;;;;;;;5000656;28;20286;-87
2021/08/24 13:41:14;;;;;;;;;;;;;;;;;;5006786;28;20564;-86
2021/08/24 13:43:43;;;;;;;;;;;;;;;;;;5003686;28;20011;-86
2021/08/24 13:46:12;;;;;;;;;;;;;;;;;;4997096;28;19925;-87
2021/08/24 13:48:44;;;;;;;;;;;;;;;;;;5015372;28;19948;-87
2021/08/24 13:51:13;;;;;;;;;;;;;;;;;;4999046;28;19929;-88
2021/08/24 13:53:50;;;;;;;;;;;;;;;;;;5018995;28;19917;-91
2021/08/24 13:56:27;;;;;;;;;;;;;;;;;;5045306;28;19925;-92
2021/08/24 13:58:59;;;;;;;;;;;;;;;;;;5023482;28;19913;-93
2021/08/24 14:01:30;;;;;;;;;;;;;;;;;;5022238;28;19910;-91
2021/08/24 14:03:59;;;;;;;;;;;;;;;;;;5021272;28;19928;-94
2021/08/24 14:06:29;;;;;;;;;;;;;;;;;;5023826;28;19909;-95
2021/08/24 14:08:57;;;;;;;;;;;;;;;;;;5048946;28;19925;-88
2021/08/24 14:11:26;;;;;;;;;;;;;;;;;;4998937;28;19932;-88
2021/08/24 14:13:54;;;;;;;;;;;;;;;;;;4998700;28;20304;-86
2021/08/24 14:16:35;;;;;;;;;;;;;;;;;;5015348;28;19947;-89
2021/08/24 14:19:28;;;;;;;;;;;;;;;;;;4998318;28;19925;-90
2021/08/24 14:21:56;;;;;;;;;;;;;;;;;;4998533;28;19925;-89
2021/08/24 14:24:24;;;;;;;;;;;;;;;;;;4998291;28;19926;-90
2021/08/24 14:26:54;;;;;;;;;;;;;;;;;;4998812;28;20312;-90
2021/08/24 14:29:23;;;;;;;;;;;;;;;;;;4998559;28;20286;-87
2021/08/24 14:31:53;;;;;;;;;;;;;;;;;;4998451;28;19947;-91
2021/08/24 14:34:22;;;;;;;;;;;;;;;;;;4996225;28;19932;-89
2021/08/24 14:36:58;;;;;;;;;;;;;;;;;;5000939;28;19932;-90
2021/08/24 14:39:27;;;;;;;;;;;;;;;;;;4990441;28;19932;-88
2021/08/24 14:41:57;;;;;;;;;;;;;;;;;;5002272;28;19926;-89
2021/08/24 14:44:25;;;;;;;;;;;;;;;;;;4995769;28;19925;-88
2021/08/24 14:46:55;;;;;;;;;;;;;;;;;;4997619;28;19929;-91
2021/08/24 14:49:25;;;;;;;;;;;;;;;;;;5001345;28;19935;-89
2021/08/24 14:51:53;;;;;;;;;;;;;;;;;;4994150;28;19934;-90
2021/08/24 14:54:22;;;;;;;;;;;;;;;;;;5000682;28;19933;-89
2021/08/24 14:56:50;;;;;;;;;;;;;;;;;;5016947;28;19932;-89
2021/08/24 14:59:26;;;;;;;;;;;;;;;;;;5001143;28;19925;-89
2021/08/24 15:02:15;;;;;;;;;;;;;;;;;;5004835;28;19925;-89
2021/08/24 15:04:44;;;;;;;;;;;;;;;;;;5005931;28;19933;-89
2021/08/24 15:07:13;;;;;;;;;;;;;;;;;;5010873;28;20263;-89
2021/08/24 15:09:48;;;;;;;;;;;;;;;;;;5003792;28;19925;-87
2021/08/24 15:12:18;;;;;;;;;;;;;;;;;;4999401;28;19926;-87
2021/08/24 15:14:47;;;;;;;;;;;;;;;;;;5015478;28;19929;-89
2021/08/24 15:17:16;;;;;;;;;;;;;;;;;;5013998;28;19936;-88
2021/08/24 15:19:53;;;;;;;;;;;;;;;;;;4999512;28;19932;-89
2021/08/24 15:22:22;;;;;;;;;;;;;;;;;;4991086;28;19933;-88
2021/08/24 15:24:51;;;;;;;;;;;;;;;;;;4991795;28;20426;-88
2021/08/24 15:27:21;;;;;;;;;;;;;;;;;;4990535;28;20317;-87
2021/08/24 15:30:04;;;;;;;;;;;;;;;;;;5020179;28;19932;-91
2021/08/24 15:32:34;;;;;;;;;;;;;;;;;;4995569;28;19926;-89
2021/08/24 15:35:04;;;;;;;;;;;;;;;;;;5000969;28;20396;-87
2021/08/24 15:37:32;;;;;;;;;;;;;;;;;;5001226;28;19925;-89
2021/08/24 15:40:01;;;;;;;;;;;;;;;;;;5000751;28;19932;-88
2021/08/24 15:42:29;;;;;;;;;;;;;;;;;;4991527;28;19948;-88
2021/08/24 15:44:59;;;;;;;;;;;;;;;;;;5000686;28;19932;-90
2021/08/24 15:47:27;;;;;;;;;;;;;;;;;;5000657;28;19925;-88
2021/08/24 15:49:55;;;;;;;;;;;;;;;;;;4999306;28;20290;-87
2021/08/24 15:52:26;;;;;;;;;;;;;;;;;;5001410;28;19925;-88
2021/08/24 15:54:54;;;;;;;;;;;;;;;;;;5000927;28;20372;-88
2021/08/24 15:57:22;;;;;;;;;;;;;;;;;;4999891;28;19934;-89
2021/08/24 15:59:50;;;;;;;;;;;;;;;;;;5000129;28;19925;-88
2021/08/24 16:02:19;;;;;;;;;;;;;;;;;;5000094;28;19925;-89
2021/08/24 16:04:47;;;;;;;;;;;;;;;;;;4995836;28;19925;-89
2021/08/24 16:07:17;;;;;;;;;;;;;;;;;;4999986;28;19932;-87
2021/08/24 16:09:47;;;;;;;;;;;;;;;;;;4998076;28;19928;-89
2021/08/24 16:12:15;;;;;;;;;;;;;;;;;;4981057;28;20308;-86
2021/08/24 16:14:43;;;;;;;;;;;;;;;;;;4992867;28;20393;-87
2021/08/24 16:17:12;;;;;;;;;;;;;;;;;;5016339;28;19926;-90
2021/08/24 16:19:41;;;;;;;;;;;;;;;;;;5000408;28;20384;-86
2021/08/24 16:22:13;;;;;;;;;;;;;;;;;;5000564;28;20311;-87
2021/08/24 16:24:41;;;;;;;;;;;;;;;;;;5000185;28;19925;-89
2021/08/24 16:27:10;;;;;;;;;;;;;;;;;;5018633;28;19925;-87
2021/08/24 16:29:38;;;;;;;;;;;;;;;;;;5019711;28;19925;-88
2021/08/24 16:32:07;;;;;;;;;;;;;;;;;;5009632;28;19932;-89
2021/08/24 16:34:35;;;;;;;;;;;;;;;;;;4999633;28;19929;-90
2021/08/24 16:37:05;;;;;;;;;;;;;;;;;;4996314;28;19925;-87
2021/08/24 16:39:33;;;;;;;;;;;;;;;;;;4996822;28;19925;-90
2021/08/24 16:42:01;;;;;;;;;;;;;;;;;;5012489;28;19926;-88
2021/08/24 16:44:29;;;;;;;;;;;;;;;;;;4999892;28;19932;-91
2021/08/24 16:46:57;;;;;;;;;;;;;;;;;;5006705;28;20316;-89
2021/08/24 16:49:26;;;;;;;;;;;;;;;;;;4998774;28;19936;-88
2021/08/24 16:51:54;;;;;;;;;;;;;;;;;;4995985;28;19932;-91
2021/08/24 16:54:23;;;;;;;;;;;;;;;;;;5016265;28;19925;-89
2021/08/24 16:56:52;;;;;;;;;;;;;;;;;;4999694;28;19951;-89
2021/08/24 16:59:20;;;;;;;;;;;;;;;;;;5015626;28;19925;-90
2021/08/24 17:01:48;;;;;;;;;;;;;;;;;;5012064;28;19925;-89
2021/08/24 17:04:24;;;;;;;;;;;;;;;;;;4994873;28;19926;-89
2021/08/24 17:06:52;;;;;;;;;;;;;;;;;;5002445;28;19925;-91
2021/08/24 17:09:20;;;;;;;;;;;;;;;;;;4997056;28;19925;-91
2021/08/24 17:11:50;;;;;;;;;;;;;;;;;;4996711;28;19932;-90
2021/08/24 17:14:18;;;;;;;;;;;;;;;;;;5009926;28;19925;-89
2021/08/24 17:16:46;;;;;;;;;;;;;;;;;;5002674;28;20144;-89
2021/08/24 17:19:15;;;;;;;;;;;;;;;;;;4998624;28;19925;-89
2021/08/24 17:21:43;;;;;;;;;;;;;;;;;;4994323;28;19925;-90
2021/08/24 17:24:11;;;;;;;;;;;;;;;;;;4995924;28;19925;-89